createdAt,value
2023-10-20T00:02:19.090Z,84.08
2023-10-20T00:05:21.503Z,84.20
2023-10-20T00:08:24.685Z,84.00
2023-10-20T00:11:27.343Z,83.70
2023-10-20T00:14:29.777Z,83.40
2023-10-20T00:17:32.299Z,83.00
2023-10-20T00:20:34.909Z,82.77
2023-10-20T00:23:37.343Z,82.70
2023-10-20T00:26:40.750Z,83.02
2023-10-20T00:29:43.235Z,82.73
2023-10-20T00:32:46.829Z,83.15
2023-10-20T00:35:50.027Z,83.02
2023-10-20T00:38:52.427Z,83.26
2023-10-20T00:41:54.838Z,83.42
2023-10-20T00:44:57.266Z,83.38
2023-10-20T00:48:00.557Z,83.23
2023-10-20T00:51:03.326Z,83.95
2023-10-20T00:54:06.409Z,83.46
2023-10-20T00:57:08.967Z,83.08
2023-10-20T01:00:12.157Z,83.11
2023-10-20T01:03:14.720Z,83.12
2023-10-20T01:06:17.217Z,83.47
2023-10-20T01:09:28.867Z,83.36
2023-10-20T01:12:32.381Z,83.26
2023-10-20T01:15:34.862Z,83.55
2023-10-20T01:18:37.293Z,83.75
2023-10-20T01:21:39.681Z,84.44
2023-10-20T01:24:42.051Z,84.28
2023-10-20T01:27:44.474Z,84.38
2023-10-20T01:30:46.877Z,85.00
2023-10-20T01:33:49.492Z,84.86
2023-10-20T01:36:53.313Z,85.44
2023-10-20T01:39:56.303Z,85.12
2023-10-20T01:42:58.723Z,84.93
2023-10-20T01:46:04.858Z,84.89
2023-10-20T01:49:07.236Z,85.14
2023-10-20T01:52:09.779Z,84.97
2023-10-20T01:55:12.282Z,85.09
2023-10-20T01:58:15.280Z,84.58
2023-10-20T02:01:20.221Z,84.43
2023-10-20T02:04:22.706Z,84.01
2023-10-20T02:07:25.052Z,83.94
2023-10-20T02:10:27.540Z,83.48
2023-10-20T02:13:29.944Z,83.36
2023-10-20T02:16:32.676Z,83.21
2023-10-20T02:19:35.113Z,82.82
2023-10-20T02:22:37.511Z,82.74
2023-10-20T02:25:39.903Z,83.26
2023-10-20T02:28:42.273Z,82.87
2023-10-20T02:31:44.658Z,82.94
2023-10-20T02:34:47.168Z,82.67
2023-10-20T02:37:49.658Z,82.68
2023-10-20T02:40:52.932Z,82.22
2023-10-20T02:43:55.576Z,82.23
2023-10-20T02:46:57.998Z,81.75
2023-10-20T02:50:00.423Z,81.50
2023-10-20T02:53:03.417Z,81.32
2023-10-20T02:56:17.049Z,80.95
2023-10-20T02:59:19.515Z,81.14
2023-10-20T03:02:22.063Z,80.81
2023-10-20T03:05:24.514Z,80.99
2023-10-20T03:08:26.989Z,81.26
2023-10-20T03:11:29.486Z,80.95
2023-10-20T03:14:32.927Z,80.61
2023-10-20T03:17:35.734Z,80.70
2023-10-20T03:20:38.227Z,80.59
2023-10-20T03:23:44.981Z,80.85
2023-10-20T03:26:47.674Z,81.09
2023-10-20T03:29:50.534Z,80.74
2023-10-20T03:32:52.956Z,80.34
2023-10-20T03:36:04.954Z,80.61
2023-10-20T03:39:21.138Z,80.69
2023-10-20T03:42:23.580Z,81.31
2023-10-20T03:45:26.854Z,81.44
2023-10-20T03:48:30.767Z,81.21
2023-10-20T03:51:36.418Z,81.54
2023-10-20T03:54:40.049Z,81.37
2023-10-20T03:57:45.978Z,81.59
2023-10-20T04:00:53.642Z,80.98
2023-10-20T04:03:57.158Z,80.87
2023-10-20T04:06:59.637Z,80.02
2023-10-20T04:10:02.577Z,79.55
2023-10-20T04:13:05.706Z,79.81
2023-10-20T04:16:14.997Z,79.52
2023-10-20T04:19:17.502Z,79.37
2023-10-20T04:22:19.895Z,79.74
2023-10-20T04:25:23.498Z,78.93
2023-10-20T04:28:44.073Z,78.70
2023-10-20T04:32:04.978Z,77.47
2023-10-20T04:35:26.049Z,78.53
2023-10-20T04:38:47.277Z,79.23
2023-10-20T04:41:57.495Z,80.03
2023-10-20T04:45:18.093Z,80.15
2023-10-20T04:48:52.635Z,81.36
2023-10-20T04:51:55.010Z,81.59
2023-10-20T04:55:16.060Z,81.50
2023-10-20T04:58:25.535Z,82.37
2023-10-20T05:01:31.418Z,82.44
2023-10-20T05:04:44.015Z,82.28
2023-10-20T05:07:51.317Z,82.68
2023-10-20T05:10:55.339Z,82.47
2023-10-20T05:13:57.937Z,82.65
2023-10-20T05:17:00.298Z,82.51
2023-10-20T05:20:02.720Z,81.92
2023-10-20T05:23:06.873Z,82.26
2023-10-20T05:26:12.413Z,82.37
2023-10-20T05:29:15.640Z,82.65
2023-10-20T05:32:18.587Z,82.29
2023-10-20T05:35:21.898Z,81.92
2023-10-20T05:38:24.573Z,82.25
2023-10-20T05:41:28.571Z,82.59
2023-10-20T05:44:34.708Z,82.67
2023-10-20T05:47:40.382Z,82.14
2023-10-20T05:50:42.945Z,82.18
2023-10-20T05:53:45.424Z,81.53
2023-10-20T05:56:47.944Z,81.46
2023-10-20T05:59:51.090Z,80.57
2023-10-20T06:02:54.289Z,81.03
2023-10-20T06:06:01.705Z,81.18
2023-10-20T06:09:07.433Z,81.27
2023-10-20T06:12:11.576Z,81.28
2023-10-20T06:15:14.002Z,81.18
2023-10-20T06:18:29.187Z,81.34
2023-10-20T06:21:37.646Z,81.62
2023-10-20T06:24:39.998Z,81.08
2023-10-20T06:27:43.754Z,81.62
2023-10-20T06:30:47.438Z,81.51
2023-10-20T06:33:55.570Z,81.37
2023-10-20T06:37:21.319Z,80.98
2023-10-20T06:40:23.737Z,80.08
2023-10-20T06:43:26.486Z,80.36
2023-10-20T06:46:29.487Z,80.06
2023-10-20T06:49:33.661Z,79.64
2023-10-20T06:52:36.643Z,79.83
2023-10-20T06:55:59.380Z,79.79
2023-10-20T06:59:05.425Z,79.25
2023-10-20T07:02:07.808Z,79.54
2023-10-20T07:05:10.207Z,78.60
2023-10-20T07:08:14.842Z,78.56
2023-10-20T07:11:17.518Z,78.50
2023-10-20T07:14:20.005Z,78.09
2023-10-20T07:17:22.450Z,77.76
2023-10-20T07:20:26.106Z,76.64
2023-10-20T07:23:28.555Z,76.19
2023-10-20T07:26:31.324Z,76.20
2023-10-20T07:29:37.463Z,76.70
2023-10-20T07:32:41.849Z,76.90
2023-10-20T07:35:44.408Z,77.08
2023-10-20T07:38:46.934Z,76.66
2023-10-20T07:41:49.431Z,75.69
2023-10-20T07:44:51.825Z,75.87
2023-10-20T07:47:54.377Z,75.75
2023-10-20T07:50:59.452Z,76.18
2023-10-20T07:54:01.916Z,75.29
2023-10-20T07:57:05.095Z,75.39
2023-10-20T08:00:14.515Z,75.27
2023-10-20T08:03:17.177Z,75.03
2023-10-20T08:06:24.152Z,74.61
2023-10-20T08:09:28.690Z,74.43
2023-10-20T08:12:31.092Z,74.07
2023-10-20T08:15:37.768Z,73.53
2023-10-20T08:18:40.230Z,73.46
2023-10-20T08:21:43.682Z,73.49
2023-10-20T08:24:46.697Z,73.32
2023-10-20T08:27:52.111Z,72.19
2023-10-20T08:31:10.869Z,72.35
2023-10-20T08:34:14.686Z,72.10
2023-10-20T08:37:18.282Z,71.63
2023-10-20T08:40:20.775Z,71.85
2023-10-20T08:43:23.442Z,71.56
2023-10-20T08:46:26.086Z,70.33
2023-10-20T08:49:29.061Z,69.68
2023-10-20T08:52:31.758Z,69.11
2023-10-20T08:55:34.232Z,68.71
2023-10-20T08:58:36.904Z,68.48
2023-10-20T09:01:39.820Z,67.35
2023-10-20T09:04:42.331Z,66.71
2023-10-20T09:07:52.286Z,65.79
2023-10-20T09:10:55.369Z,65.12
2023-10-20T09:13:58.262Z,63.17
2023-10-20T09:17:04.159Z,62.95
2023-10-20T09:20:13.107Z,62.13
2023-10-20T09:23:15.633Z,60.95
2023-10-20T09:26:18.087Z,60.01
2023-10-20T09:29:20.504Z,60.17
2023-10-20T09:32:23.072Z,59.00
2023-10-20T09:35:27.217Z,57.51
2023-10-20T09:38:29.781Z,57.96
2023-10-20T09:41:32.313Z,57.95
2023-10-20T09:44:50.479Z,58.31
2023-10-20T09:47:53.553Z,57.85
2023-10-20T09:50:56.344Z,57.69
2023-10-20T09:53:58.828Z,57.00
2023-10-20T09:57:01.769Z,56.73
2023-10-20T10:00:10.621Z,57.42
2023-10-20T10:03:14.132Z,57.25
2023-10-20T10:06:20.747Z,55.87
2023-10-20T10:09:23.303Z,55.99
2023-10-20T10:12:29.617Z,56.64
2023-10-20T10:15:41.963Z,56.51
2023-10-20T10:18:47.559Z,56.98
2023-10-20T10:21:51.733Z,57.58
2023-10-20T10:24:57.992Z,57.44
2023-10-20T10:28:11.400Z,57.12
2023-10-20T10:31:13.894Z,57.04
2023-10-20T10:34:16.433Z,57.10
2023-10-20T10:37:34.876Z,57.21
2023-10-20T10:40:46.644Z,56.96
2023-10-20T10:43:54.288Z,56.57
2023-10-20T10:46:56.781Z,57.29
2023-10-20T10:49:59.235Z,57.58
2023-10-20T10:53:02.218Z,57.03
2023-10-20T10:56:05.058Z,56.86
2023-10-20T10:59:08.352Z,56.47
2023-10-20T11:02:11.016Z,56.05
2023-10-20T11:05:14.025Z,56.45
2023-10-20T11:08:18.759Z,55.55
2023-10-20T11:11:21.277Z,56.20
2023-10-20T11:14:24.892Z,55.61
2023-10-20T11:17:29.089Z,56.00
2023-10-20T11:20:37.662Z,56.30
2023-10-20T11:23:40.241Z,56.19
2023-10-20T11:26:42.683Z,56.45
2023-10-20T11:29:58.454Z,56.54
2023-10-20T11:33:02.050Z,56.24
2023-10-20T11:36:05.772Z,56.65
2023-10-20T11:39:08.146Z,56.48
2023-10-20T11:42:13.086Z,56.89
2023-10-20T11:45:16.084Z,57.13
2023-10-20T11:48:18.770Z,56.55
2023-10-20T11:51:21.192Z,57.09
2023-10-20T11:54:23.693Z,57.01
2023-10-20T11:57:26.106Z,57.30
2023-10-20T12:00:28.468Z,57.60
2023-10-20T12:03:31.156Z,58.01
2023-10-20T12:06:37.427Z,57.91
2023-10-20T12:09:39.781Z,57.46
2023-10-20T12:12:42.158Z,58.18
2023-10-20T12:15:44.606Z,57.23
2023-10-20T12:18:47.755Z,56.98
2023-10-20T12:21:50.115Z,55.41
2023-10-20T12:24:52.504Z,55.30
2023-10-20T12:27:54.881Z,54.55
2023-10-20T12:30:57.337Z,54.56
2023-10-20T12:33:59.815Z,54.29
2023-10-20T12:37:02.404Z,53.54
2023-10-20T12:40:05.251Z,53.35
2023-10-20T12:43:12.996Z,53.26
2023-10-20T12:46:17.136Z,52.83
2023-10-20T12:49:20.187Z,52.76
2023-10-20T12:52:23.012Z,52.48
2023-10-20T12:55:27.365Z,51.84
2023-10-20T12:58:29.726Z,51.16
2023-10-20T13:01:32.171Z,50.61
2023-10-20T13:04:35.594Z,49.59
2023-10-20T13:07:38.920Z,49.60
2023-10-20T13:10:44.892Z,48.47
2023-10-20T13:13:47.432Z,48.43
2023-10-20T13:16:49.870Z,48.14
2023-10-20T13:19:52.394Z,47.67
2023-10-20T13:22:54.794Z,47.21
2023-10-20T13:26:05.771Z,47.08
2023-10-20T13:29:08.240Z,47.07
2023-10-20T13:32:10.661Z,46.29
2023-10-20T13:35:13.147Z,46.92
2023-10-20T13:38:18.886Z,47.12
2023-10-20T13:41:34.849Z,47.60
2023-10-20T13:44:37.685Z,47.82
2023-10-20T13:47:40.241Z,48.23
2023-10-20T13:50:42.754Z,48.28
2023-10-20T13:53:45.194Z,48.30
2023-10-20T13:56:48.149Z,48.57
2023-10-20T13:59:50.699Z,48.25
2023-10-20T14:02:53.185Z,48.09
2023-10-20T14:05:56.354Z,48.52
2023-10-20T14:08:59.085Z,49.14
2023-10-20T14:12:01.506Z,49.25
2023-10-20T14:15:04.804Z,48.94
2023-10-20T14:18:07.568Z,49.52
2023-10-20T14:21:10.039Z,50.08
2023-10-20T14:24:12.440Z,50.25
2023-10-20T14:27:14.913Z,50.52
2023-10-20T14:30:17.309Z,50.54
2023-10-20T14:33:19.760Z,51.13
2023-10-20T14:36:22.260Z,51.28
2023-10-20T14:39:25.770Z,51.44
2023-10-20T14:42:28.133Z,51.48
2023-10-20T14:45:30.557Z,51.51
2023-10-20T14:48:33.601Z,51.72
2023-10-20T14:51:36.107Z,51.82
2023-10-20T14:54:38.553Z,51.86
2023-10-20T14:57:41.493Z,51.98
2023-10-20T15:00:50.234Z,52.03
2023-10-20T15:03:52.766Z,52.24
2023-10-20T15:06:55.328Z,52.40
2023-10-20T15:09:58.640Z,52.21
2023-10-20T15:13:02.090Z,52.10
2023-10-20T15:16:06.356Z,52.15
2023-10-20T15:19:08.883Z,52.46
2023-10-20T15:22:11.387Z,52.51
2023-10-20T15:25:13.737Z,52.45
2023-10-20T15:28:16.312Z,52.43
2023-10-20T15:31:18.718Z,52.73
2023-10-20T15:34:21.158Z,52.45
2023-10-20T15:37:26.144Z,52.56
2023-10-20T15:40:28.879Z,52.68
2023-10-20T15:43:31.458Z,52.71
2023-10-20T15:46:33.896Z,52.62
2023-10-20T15:49:36.452Z,52.77
2023-10-20T15:52:39.905Z,52.97
2023-10-20T15:55:43.075Z,53.05
2023-10-20T15:58:45.504Z,53.08
2023-10-20T16:01:47.928Z,52.86
2023-10-20T16:04:53.258Z,52.81
2023-10-20T16:07:55.617Z,53.07
2023-10-20T16:10:58.046Z,53.10
2023-10-20T16:14:01.638Z,53.19
2023-10-20T16:17:04.064Z,53.23
2023-10-20T16:20:06.817Z,53.32
2023-10-20T16:23:09.220Z,53.32
2023-10-20T16:26:12.404Z,53.63
2023-10-20T16:29:14.881Z,54.11
2023-10-20T16:32:17.291Z,53.84
2023-10-20T16:35:19.674Z,54.01
2023-10-20T16:38:22.142Z,53.83
2023-10-20T16:41:24.602Z,53.90
2023-10-20T16:44:28.471Z,53.89
2023-10-20T16:47:31.069Z,54.17
2023-10-20T16:50:33.541Z,53.97
2023-10-20T16:53:36.598Z,54.28
2023-10-20T16:56:39.528Z,54.44
2023-10-20T16:59:42.033Z,54.19
2023-10-20T17:02:45.551Z,54.43
2023-10-20T17:05:48.109Z,54.30
2023-10-20T17:08:51.200Z,54.48
2023-10-20T17:11:53.642Z,54.38
2023-10-20T17:14:56.081Z,54.51
2023-10-20T17:17:58.617Z,54.42
2023-10-20T17:21:04.878Z,54.21
2023-10-20T17:24:09.515Z,54.28
2023-10-20T17:27:11.990Z,53.99
2023-10-20T17:30:14.550Z,54.25
2023-10-20T17:33:17.911Z,54.49
2023-10-20T17:36:20.409Z,54.37
2023-10-20T17:39:22.848Z,54.18
2023-10-20T17:42:25.408Z,53.90
2023-10-20T17:45:28.146Z,53.62
2023-10-20T17:48:30.819Z,53.49
2023-10-20T17:51:33.642Z,53.23
2023-10-20T17:54:36.068Z,53.32
2023-10-20T17:57:38.462Z,53.51
2023-10-20T18:00:42.225Z,53.67
2023-10-20T18:03:44.983Z,53.77
2023-10-20T18:06:47.492Z,53.81
2023-10-20T18:09:49.968Z,53.90
2023-10-20T18:12:52.356Z,53.73
2023-10-20T18:15:54.770Z,53.86
2023-10-20T18:18:57.222Z,53.56
2023-10-20T18:21:59.594Z,53.87
2023-10-20T18:25:02.012Z,53.62
2023-10-20T18:28:04.652Z,53.81
2023-10-20T18:31:14.451Z,53.93
2023-10-20T18:34:16.925Z,53.72
2023-10-20T18:37:19.720Z,53.52
2023-10-20T18:40:22.099Z,53.46
2023-10-20T18:43:24.561Z,53.29
2023-10-20T18:46:27.460Z,53.34
2023-10-20T18:49:29.882Z,53.09
2023-10-20T18:52:32.371Z,53.32
2023-10-20T18:55:34.987Z,53.00
2023-10-20T18:58:37.971Z,52.91
2023-10-20T19:01:40.527Z,52.72
2023-10-20T19:04:42.939Z,52.50
2023-10-20T19:07:45.627Z,52.26
2023-10-20T19:10:48.052Z,52.50
2023-10-20T19:13:50.422Z,52.66
2023-10-20T19:16:54.039Z,53.10
2023-10-20T19:19:56.453Z,52.71
2023-10-20T19:23:00.788Z,52.75
2023-10-20T19:26:11.505Z,52.95
2023-10-20T19:29:14.187Z,53.24
2023-10-20T19:32:16.751Z,53.45
2023-10-20T19:35:19.154Z,53.76
2023-10-20T19:38:21.605Z,53.66
2023-10-20T19:41:24.010Z,53.85
2023-10-20T19:44:26.414Z,54.20
2023-10-20T19:47:28.950Z,54.24
2023-10-20T19:50:31.364Z,54.63
2023-10-20T19:53:33.849Z,54.61
2023-10-20T19:56:36.409Z,54.54
2023-10-20T19:59:38.976Z,54.77
2023-10-20T20:02:42.303Z,55.22
2023-10-20T20:05:44.899Z,55.84
2023-10-20T20:08:47.360Z,55.95
2023-10-20T20:11:49.797Z,56.72
2023-10-20T20:14:52.286Z,57.30
2023-10-20T20:17:56.196Z,57.02
2023-10-20T20:20:59.171Z,57.37
2023-10-20T20:24:01.624Z,57.59
2023-10-20T20:27:04.297Z,57.63
2023-10-20T20:30:07.399Z,57.74
2023-10-20T20:33:10.063Z,57.92
2023-10-20T20:36:12.538Z,57.29
2023-10-20T20:39:14.999Z,57.44
2023-10-20T20:42:18.125Z,57.28
2023-10-20T20:45:20.514Z,57.18
2023-10-20T20:48:23.050Z,57.15
2023-10-20T20:51:25.508Z,57.14
2023-10-20T20:54:27.878Z,57.12
2023-10-20T20:57:30.290Z,57.10
2023-10-20T21:00:32.654Z,57.07
2023-10-20T21:03:35.163Z,57.23
2023-10-20T21:06:37.683Z,57.07
2023-10-20T21:09:40.110Z,57.39
2023-10-20T21:12:42.487Z,57.54
2023-10-20T21:15:44.903Z,57.70
2023-10-20T21:18:47.329Z,57.36
2023-10-20T21:21:49.795Z,57.14
2023-10-20T21:24:55.605Z,57.07
2023-10-20T21:27:57.992Z,57.00
2023-10-20T21:31:03.829Z,57.22
2023-10-20T21:34:06.245Z,57.23
2023-10-20T21:37:08.608Z,57.00
2023-10-20T21:40:11.493Z,56.95
2023-10-20T21:43:14.450Z,56.98
2023-10-20T21:46:16.864Z,57.27
2023-10-20T21:49:19.319Z,57.18
2023-10-20T21:52:21.758Z,57.26
2023-10-20T21:55:24.362Z,57.48
2023-10-20T21:58:26.733Z,57.65
2023-10-20T22:01:29.148Z,57.80
2023-10-20T22:04:31.520Z,58.16
2023-10-20T22:07:33.926Z,57.85
2023-10-20T22:10:36.302Z,58.25
2023-10-20T22:13:38.654Z,58.55
2023-10-20T22:16:41.154Z,58.69
2023-10-20T22:19:43.651Z,59.26
2023-10-20T22:22:46.045Z,58.94
2023-10-20T22:25:48.492Z,59.28
2023-10-20T22:28:51.119Z,58.96
2023-10-20T22:31:53.738Z,58.28
2023-10-20T22:34:56.139Z,57.56
2023-10-20T22:37:58.570Z,57.58
2023-10-20T22:41:00.983Z,57.64
2023-10-20T22:44:03.595Z,57.17
2023-10-20T22:47:06.128Z,56.89
2023-10-20T22:50:09.173Z,56.80
2023-10-20T22:53:11.758Z,57.11
2023-10-20T22:56:14.192Z,57.02
2023-10-20T22:59:16.624Z,57.07
2023-10-20T23:02:19.033Z,57.13
2023-10-20T23:05:23.221Z,57.53
2023-10-20T23:08:26.797Z,56.71
2023-10-20T23:11:29.218Z,57.18
2023-10-20T23:14:31.929Z,56.77
2023-10-20T23:17:34.423Z,56.40
2023-10-20T23:20:36.924Z,56.71
2023-10-20T23:23:39.316Z,57.08
2023-10-20T23:26:42.048Z,57.05
2023-10-20T23:29:44.539Z,57.00
2023-10-20T23:32:47.146Z,56.78
2023-10-20T23:35:49.862Z,56.75
2023-10-20T23:38:52.330Z,56.99
2023-10-20T23:41:54.875Z,57.21
2023-10-20T23:44:57.427Z,57.48
2023-10-20T23:47:59.980Z,57.22
2023-10-20T23:51:02.433Z,57.13
2023-10-20T23:54:05.039Z,57.10
2023-10-20T23:57:07.488Z,57.34
